sensor_id;sensor_type;location;lat;lon;timestamp;temperature;humidity
9083;DHT22;4577;48.704;9.000;2023-07-29T00:02:17;18.00;99.90
9083;DHT22;4577;48.704;9.000;2023-07-29T00:04:43;18.40;99.90
9083;DHT22;4577;48.704;9.000;2023-07-29T00:07:09;18.40;99.90
9083;DHT22;4577;48.704;9.000;2023-07-29T00:09:34;18.30;99.90
9083;DHT22;4577;48.704;9.000;2023-07-29T00:12:00;18.10;99.90
9083;DHT22;4577;48.704;9.000;2023-07-29T00:24:11;18.20;99.90
9083;DHT22;4577;48.704;9.000;2023-07-29T00:29:03;18.30;99.90
9083;DHT22;4577;48.704;9.000;2023-07-29T00:31:29;18.30;99.90
9083;DHT22;4577;48.704;9.000;2023-07-29T00:33:54;18.40;99.90
9083;DHT22;4577;48.704;9.000;2023-07-29T00:36:20;18.40;99.90
9083;DHT22;4577;48.704;9.000;2023-07-29T00:38:46;18.30;99.90
9083;DHT22;4577;48.704;9.000;2023-07-29T00:43:39;18.30;99.90
9083;DHT22;4577;48.704;9.000;2023-07-29T00:46:04;18.10;99.90
9083;DHT22;4577;48.704;9.000;2023-07-29T00:48:31;18.20;99.90
9083;DHT22;4577;48.704;9.000;2023-07-29T00:53:23;18.20;99.90
9083;DHT22;4577;48.704;9.000;2023-07-29T00:58:15;18.20;99.90
9083;DHT22;4577;48.704;9.000;2023-07-29T01:03:06;18.20;99.90
9083;DHT22;4577;48.704;9.000;2023-07-29T01:05:39;18.20;99.90
9083;DHT22;4577;48.704;9.000;2023-07-29T01:08:15;18.10;99.90
9083;DHT22;4577;48.704;9.000;2023-07-29T01:13:27;18.10;99.90
9083;DHT22;4577;48.704;9.000;2023-07-29T01:16:02;18.20;99.90
9083;DHT22;4577;48.704;9.000;2023-07-29T01:18:32;18.10;99.90
9083;DHT22;4577;48.704;9.000;2023-07-29T01:21:04;18.20;99.90
9083;DHT22;4577;48.704;9.000;2023-07-29T01:23:36;18.20;99.90
9083;DHT22;4577;48.704;9.000;2023-07-29T01:28:28;18.00;99.90
9083;DHT22;4577;48.704;9.000;2023-07-29T01:31:17;18.10;99.90
9083;DHT22;4577;48.704;9.000;2023-07-29T01:33:56;18.00;99.90
9083;DHT22;4577;48.704;9.000;2023-07-29T01:36:26;18.10;99.90
9083;DHT22;4577;48.704;9.000;2023-07-29T01:38:54;18.10;99.90
9083;DHT22;4577;48.704;9.000;2023-07-29T01:46:14;18.10;99.90
9083;DHT22;4577;48.704;9.000;2023-07-29T01:51:06;18.70;99.90
9083;DHT22;4577;48.704;9.000;2023-07-29T01:58:25;18.10;99.90
9083;DHT22;4577;48.704;9.000;2023-07-29T02:00:51;18.00;99.90
9083;DHT22;4577;48.704;9.000;2023-07-29T02:03:16;18.00;99.90
9083;DHT22;4577;48.704;9.000;2023-07-29T02:10:35;18.00;99.90
9083;DHT22;4577;48.704;9.000;2023-07-29T02:13:02;18.00;99.90
9083;DHT22;4577;48.704;9.000;2023-07-29T02:17:54;17.90;99.90
9083;DHT22;4577;48.704;9.000;2023-07-29T02:20:19;18.00;99.90
9083;DHT22;4577;48.704;9.000;2023-07-29T02:22:45;18.00;99.90
9083;DHT22;4577;48.704;9.000;2023-07-29T02:25:11;18.00;99.90
9083;DHT22;4577;48.704;9.000;2023-07-29T02:27:37;17.90;99.90
9083;DHT22;4577;48.704;9.000;2023-07-29T02:30:03;17.90;99.90
9083;DHT22;4577;48.704;9.000;2023-07-29T02:37:21;17.90;99.90
9083;DHT22;4577;48.704;9.000;2023-07-29T02:42:13;17.90;99.90
9083;DHT22;4577;48.704;9.000;2023-07-29T02:44:40;17.80;99.90
9083;DHT22;4577;48.704;9.000;2023-07-29T02:47:05;17.80;99.90
9083;DHT22;4577;48.704;9.000;2023-07-29T02:49:31;17.80;99.90
9083;DHT22;4577;48.704;9.000;2023-07-29T02:54:23;17.80;99.90
9083;DHT22;4577;48.704;9.000;2023-07-29T02:56:50;17.90;99.90
9083;DHT22;4577;48.704;9.000;2023-07-29T02:59:16;17.90;99.90
9083;DHT22;4577;48.704;9.000;2023-07-29T03:06:34;17.80;99.90
9083;DHT22;4577;48.704;9.000;2023-07-29T03:11:26;17.80;99.90
9083;DHT22;4577;48.704;9.000;2023-07-29T03:16:17;17.80;99.90
9083;DHT22;4577;48.704;9.000;2023-07-29T03:18:44;17.80;99.90
9083;DHT22;4577;48.704;9.000;2023-07-29T03:26:03;17.70;99.90
9083;DHT22;4577;48.704;9.000;2023-07-29T03:28:40;17.50;99.90
9083;DHT22;4577;48.704;9.000;2023-07-29T03:33:32;17.80;99.90
9083;DHT22;4577;48.704;9.000;2023-07-29T03:38:24;17.80;99.90
9083;DHT22;4577;48.704;9.000;2023-07-29T03:43:16;17.70;99.90
9083;DHT22;4577;48.704;9.000;2023-07-29T03:45:42;17.70;99.90
9083;DHT22;4577;48.704;9.000;2023-07-29T03:48:09;17.70;99.90
9083;DHT22;4577;48.704;9.000;2023-07-29T03:50:35;17.60;99.90
9083;DHT22;4577;48.704;9.000;2023-07-29T03:53:05;17.70;99.90
9083;DHT22;4577;48.704;9.000;2023-07-29T03:58:00;17.70;99.90
9083;DHT22;4577;48.704;9.000;2023-07-29T04:00:26;17.70;99.90
9083;DHT22;4577;48.704;9.000;2023-07-29T04:02:53;17.70;99.90
9083;DHT22;4577;48.704;9.000;2023-07-29T04:15:04;17.80;99.90
9083;DHT22;4577;48.704;9.000;2023-07-29T04:22:22;17.80;99.90
9083;DHT22;4577;48.704;9.000;2023-07-29T04:24:47;17.40;99.90
9083;DHT22;4577;48.704;9.000;2023-07-29T04:32:06;17.90;99.90
9083;DHT22;4577;48.704;9.000;2023-07-29T04:34:32;17.70;99.90
9083;DHT22;4577;48.704;9.000;2023-07-29T04:36:58;17.70;99.90
9083;DHT22;4577;48.704;9.000;2023-07-29T04:46:41;17.20;99.90
9083;DHT22;4577;48.704;9.000;2023-07-29T04:51:33;17.60;99.90
9083;DHT22;4577;48.704;9.000;2023-07-29T04:53:59;17.30;99.90
9083;DHT22;4577;48.704;9.000;2023-07-29T04:56:25;16.50;99.90
9083;DHT22;4577;48.704;9.000;2023-07-29T04:58:51;17.50;99.90
9083;DHT22;4577;48.704;9.000;2023-07-29T05:06:09;17.50;99.90
9083;DHT22;4577;48.704;9.000;2023-07-29T05:11:01;17.50;99.90
9083;DHT22;4577;48.704;9.000;2023-07-29T05:13:26;17.60;99.90
9083;DHT22;4577;48.704;9.000;2023-07-29T05:20:44;17.60;99.90
9083;DHT22;4577;48.704;9.000;2023-07-29T05:25:36;17.70;99.90
9083;DHT22;4577;48.704;9.000;2023-07-29T05:28:02;17.70;99.90
9083;DHT22;4577;48.704;9.000;2023-07-29T05:30:29;17.70;99.90
9083;DHT22;4577;48.704;9.000;2023-07-29T05:33:00;17.80;99.90
9083;DHT22;4577;48.704;9.000;2023-07-29T05:37:52;17.80;99.90
9083;DHT22;4577;48.704;9.000;2023-07-29T05:47:37;17.90;99.90
9083;DHT22;4577;48.704;9.000;2023-07-29T05:50:04;18.10;99.90
9083;DHT22;4577;48.704;9.000;2023-07-29T05:52:33;18.00;99.90
9083;DHT22;4577;48.704;9.000;2023-07-29T05:54:59;18.00;99.90
9083;DHT22;4577;48.704;9.000;2023-07-29T05:57:25;18.10;99.90
9083;DHT22;4577;48.704;9.000;2023-07-29T05:59:51;18.10;99.90
9083;DHT22;4577;48.704;9.000;2023-07-29T06:02:17;18.10;99.90
9083;DHT22;4577;48.704;9.000;2023-07-29T06:04:42;18.10;99.90
9083;DHT22;4577;48.704;9.000;2023-07-29T06:09:34;18.30;99.90
9083;DHT22;4577;48.704;9.000;2023-07-29T06:12:00;18.30;99.90
9083;DHT22;4577;48.704;9.000;2023-07-29T06:14:26;18.40;99.90
9083;DHT22;4577;48.704;9.000;2023-07-29T06:16:52;18.40;99.90
9083;DHT22;4577;48.704;9.000;2023-07-29T06:19:19;18.50;99.90
9083;DHT22;4577;48.704;9.000;2023-07-29T06:21:45;18.50;99.90
9083;DHT22;4577;48.704;9.000;2023-07-29T06:24:11;18.50;99.90
9083;DHT22;4577;48.704;9.000;2023-07-29T06:26:36;18.50;99.90
9083;DHT22;4577;48.704;9.000;2023-07-29T06:31:28;18.80;99.90
9083;DHT22;4577;48.704;9.000;2023-07-29T06:36:21;18.50;99.90
9083;DHT22;4577;48.704;9.000;2023-07-29T06:43:39;18.50;99.90
9083;DHT22;4577;48.704;9.000;2023-07-29T06:48:31;18.20;99.90
9083;DHT22;4577;48.704;9.000;2023-07-29T06:50:56;18.40;99.90
9083;DHT22;4577;48.704;9.000;2023-07-29T06:53:26;18.40;99.90
9083;DHT22;4577;48.704;9.000;2023-07-29T06:55:52;18.40;99.90
9083;DHT22;4577;48.704;9.000;2023-07-29T06:58:18;18.40;99.90
9083;DHT22;4577;48.704;9.000;2023-07-29T07:00:44;18.30;99.90
9083;DHT22;4577;48.704;9.000;2023-07-29T07:03:09;18.30;99.90
9083;DHT22;4577;48.704;9.000;2023-07-29T07:05:35;18.30;99.90
9083;DHT22;4577;48.704;9.000;2023-07-29T07:08:01;18.30;99.90
9083;DHT22;4577;48.704;9.000;2023-07-29T07:10:26;18.50;99.90
9083;DHT22;4577;48.704;9.000;2023-07-29T07:12:52;18.30;99.90
9083;DHT22;4577;48.704;9.000;2023-07-29T07:15:18;18.30;99.90
9083;DHT22;4577;48.704;9.000;2023-07-29T07:20:10;18.30;99.90
9083;DHT22;4577;48.704;9.000;2023-07-29T07:22:36;18.30;99.90
9083;DHT22;4577;48.704;9.000;2023-07-29T07:25:03;18.50;99.90
9083;DHT22;4577;48.704;9.000;2023-07-29T07:27:28;18.30;99.90
9083;DHT22;4577;48.704;9.000;2023-07-29T07:29:54;18.40;99.90
9083;DHT22;4577;48.704;9.000;2023-07-29T07:32:20;18.40;99.90
9083;DHT22;4577;48.704;9.000;2023-07-29T07:34:45;18.40;99.90
9083;DHT22;4577;48.704;9.000;2023-07-29T07:37:11;18.40;99.90
9083;DHT22;4577;48.704;9.000;2023-07-29T07:39:37;18.40;99.90
9083;DHT22;4577;48.704;9.000;2023-07-29T07:42:03;18.50;99.90
9083;DHT22;4577;48.704;9.000;2023-07-29T07:44:28;18.50;99.90
9083;DHT22;4577;48.704;9.000;2023-07-29T07:46:54;18.50;99.90
9083;DHT22;4577;48.704;9.000;2023-07-29T07:49:20;18.60;99.90
9083;DHT22;4577;48.704;9.000;2023-07-29T07:51:45;18.60;99.90
9083;DHT22;4577;48.704;9.000;2023-07-29T07:54:11;18.60;99.90
9083;DHT22;4577;48.704;9.000;2023-07-29T07:56:37;18.70;99.90
9083;DHT22;4577;48.704;9.000;2023-07-29T07:59:02;18.70;99.90
9083;DHT22;4577;48.704;9.000;2023-07-29T08:01:34;18.60;99.90
9083;DHT22;4577;48.704;9.000;2023-07-29T08:04:01;18.80;99.90
9083;DHT22;4577;48.704;9.000;2023-07-29T08:08:53;18.90;99.90
9083;DHT22;4577;48.704;9.000;2023-07-29T08:13:44;19.10;99.90
9083;DHT22;4577;48.704;9.000;2023-07-29T08:16:10;19.10;99.90
9083;DHT22;4577;48.704;9.000;2023-07-29T08:23:30;19.20;99.90
9083;DHT22;4577;48.704;9.000;2023-07-29T08:25:59;19.20;99.90
9083;DHT22;4577;48.704;9.000;2023-07-29T08:28:30;19.20;99.90
9083;DHT22;4577;48.704;9.000;2023-07-29T08:30:56;19.30;99.90
9083;DHT22;4577;48.704;9.000;2023-07-29T08:33:21;22.90;99.90
9083;DHT22;4577;48.704;9.000;2023-07-29T08:35:47;19.50;99.90
9083;DHT22;4577;48.704;9.000;2023-07-29T08:38:13;19.40;99.90
9083;DHT22;4577;48.704;9.000;2023-07-29T08:40:45;19.50;99.90
9083;DHT22;4577;48.704;9.000;2023-07-29T08:43:17;19.50;99.90
9083;DHT22;4577;48.704;9.000;2023-07-29T08:45:44;19.60;99.90
9083;DHT22;4577;48.704;9.000;2023-07-29T08:48:11;19.70;99.90
9083;DHT22;4577;48.704;9.000;2023-07-29T08:50:37;19.80;99.90
9083;DHT22;4577;48.704;9.000;2023-07-29T08:53:06;20.10;99.90
9083;DHT22;4577;48.704;9.000;2023-07-29T08:55:32;19.90;99.90
9083;DHT22;4577;48.704;9.000;2023-07-29T08:57:59;19.90;99.90
9083;DHT22;4577;48.704;9.000;2023-07-29T09:00:28;19.90;99.90
9083;DHT22;4577;48.704;9.000;2023-07-29T09:02:54;20.00;99.90
9083;DHT22;4577;48.704;9.000;2023-07-29T09:05:21;20.10;99.90
9083;DHT22;4577;48.704;9.000;2023-07-29T09:07:48;20.20;99.90
9083;DHT22;4577;48.704;9.000;2023-07-29T09:10:14;20.20;99.90
9083;DHT22;4577;48.704;9.000;2023-07-29T09:12:41;20.20;99.90
9083;DHT22;4577;48.704;9.000;2023-07-29T09:15:07;20.30;99.90
9083;DHT22;4577;48.704;9.000;2023-07-29T09:17:33;20.40;99.90
9083;DHT22;4577;48.704;9.000;2023-07-29T09:19:59;20.40;99.90
9083;DHT22;4577;48.704;9.000;2023-07-29T09:22:27;20.50;99.90
9083;DHT22;4577;48.704;9.000;2023-07-29T09:24:53;20.50;99.90
9083;DHT22;4577;48.704;9.000;2023-07-29T09:27:26;20.50;99.90
9083;DHT22;4577;48.704;9.000;2023-07-29T09:29:55;20.50;99.90
9083;DHT22;4577;48.704;9.000;2023-07-29T09:32:22;20.50;99.90
9083;DHT22;4577;48.704;9.000;2023-07-29T09:34:48;20.50;99.90
9083;DHT22;4577;48.704;9.000;2023-07-29T09:37:20;20.70;99.90
9083;DHT22;4577;48.704;9.000;2023-07-29T09:39:50;20.70;99.90
9083;DHT22;4577;48.704;9.000;2023-07-29T09:42:20;20.70;99.90
9083;DHT22;4577;48.704;9.000;2023-07-29T09:44:48;20.80;99.90
9083;DHT22;4577;48.704;9.000;2023-07-29T09:49:47;20.90;99.90
9083;DHT22;4577;48.704;9.000;2023-07-29T09:52:15;20.90;99.90
9083;DHT22;4577;48.704;9.000;2023-07-29T09:54:43;21.10;99.90
9083;DHT22;4577;48.704;9.000;2023-07-29T09:57:13;21.20;99.90
9083;DHT22;4577;48.704;9.000;2023-07-29T09:59:39;21.10;99.90
9083;DHT22;4577;48.704;9.000;2023-07-29T10:02:24;21.30;99.90
9083;DHT22;4577;48.704;9.000;2023-07-29T10:04:53;21.30;99.90
9083;DHT22;4577;48.704;9.000;2023-07-29T10:07:20;21.40;99.90
9083;DHT22;4577;48.704;9.000;2023-07-29T10:09:47;21.60;99.90
9083;DHT22;4577;48.704;9.000;2023-07-29T10:12:13;21.80;99.90
9083;DHT22;4577;48.704;9.000;2023-07-29T10:14:39;21.80;99.90
9083;DHT22;4577;48.704;9.000;2023-07-29T10:22:03;21.80;99.90
9083;DHT22;4577;48.704;9.000;2023-07-29T10:24:32;21.80;99.90
9083;DHT22;4577;48.704;9.000;2023-07-29T10:27:00;21.90;99.90
9083;DHT22;4577;48.704;9.000;2023-07-29T10:29:38;22.00;99.90
9083;DHT22;4577;48.704;9.000;2023-07-29T10:32:07;21.90;99.90
9083;DHT22;4577;48.704;9.000;2023-07-29T10:34:33;21.80;99.90
9083;DHT22;4577;48.704;9.000;2023-07-29T10:37:01;21.80;99.90
9083;DHT22;4577;48.704;9.000;2023-07-29T10:39:27;22.30;99.90
9083;DHT22;4577;48.704;9.000;2023-07-29T10:42:00;22.20;99.90
9083;DHT22;4577;48.704;9.000;2023-07-29T10:47:12;22.20;99.20
9083;DHT22;4577;48.704;9.000;2023-07-29T10:49:40;22.30;99.30
9083;DHT22;4577;48.704;9.000;2023-07-29T10:52:06;22.50;98.70
9083;DHT22;4577;48.704;9.000;2023-07-29T10:54:45;22.60;98.30
9083;DHT22;4577;48.704;9.000;2023-07-29T10:57:15;22.60;97.60
9083;DHT22;4577;48.704;9.000;2023-07-29T10:59:53;22.50;96.70
9083;DHT22;4577;48.704;9.000;2023-07-29T11:02:20;22.40;96.70
9083;DHT22;4577;48.704;9.000;2023-07-29T11:04:47;22.40;96.50
9083;DHT22;4577;48.704;9.000;2023-07-29T11:15:21;22.50;97.90
9083;DHT22;4577;48.704;9.000;2023-07-29T11:17:50;22.50;98.80
9083;DHT22;4577;48.704;9.000;2023-07-29T11:20:18;22.40;99.30
9083;DHT22;4577;48.704;9.000;2023-07-29T11:25:12;22.40;96.20
9083;DHT22;4577;48.704;9.000;2023-07-29T11:27:39;22.70;94.50
9083;DHT22;4577;48.704;9.000;2023-07-29T11:30:07;22.50;94.70
9083;DHT22;4577;48.704;9.000;2023-07-29T11:32:35;22.60;97.30
9083;DHT22;4577;48.704;9.000;2023-07-29T11:35:12;22.60;97.20
9083;DHT22;4577;48.704;9.000;2023-07-29T11:37:41;22.50;96.00
9083;DHT22;4577;48.704;9.000;2023-07-29T11:40:08;22.60;94.70
9083;DHT22;4577;48.704;9.000;2023-07-29T11:42:38;22.80;94.60
9083;DHT22;4577;48.704;9.000;2023-07-29T11:45:04;22.80;93.70
9083;DHT22;4577;48.704;9.000;2023-07-29T11:47:34;22.80;93.30
9083;DHT22;4577;48.704;9.000;2023-07-29T11:50:04;22.90;91.70
9083;DHT22;4577;48.704;9.000;2023-07-29T11:52:32;23.10;91.20
9083;DHT22;4577;48.704;9.000;2023-07-29T11:54:58;23.10;91.50
9083;DHT22;4577;48.704;9.000;2023-07-29T11:57:25;23.10;91.10
9083;DHT22;4577;48.704;9.000;2023-07-29T11:59:51;23.00;90.70
9083;DHT22;4577;48.704;9.000;2023-07-29T12:02:20;23.10;90.90
9083;DHT22;4577;48.704;9.000;2023-07-29T12:04:46;23.00;90.80
9083;DHT22;4577;48.704;9.000;2023-07-29T12:07:13;23.10;91.20
9083;DHT22;4577;48.704;9.000;2023-07-29T12:09:41;23.10;88.00
9083;DHT22;4577;48.704;9.000;2023-07-29T12:12:08;23.10;89.00
9083;DHT22;4577;48.704;9.000;2023-07-29T12:14:34;23.10;88.10
9083;DHT22;4577;48.704;9.000;2023-07-29T12:17:01;23.10;87.60
9083;DHT22;4577;48.704;9.000;2023-07-29T12:19:34;23.20;88.30
9083;DHT22;4577;48.704;9.000;2023-07-29T12:22:07;23.20;88.00
9083;DHT22;4577;48.704;9.000;2023-07-29T12:24:34;23.30;86.60
9083;DHT22;4577;48.704;9.000;2023-07-29T12:27:01;23.30;86.50
9083;DHT22;4577;48.704;9.000;2023-07-29T12:29:27;23.50;87.60
9083;DHT22;4577;48.704;9.000;2023-07-29T12:32:03;23.30;87.40
9083;DHT22;4577;48.704;9.000;2023-07-29T12:34:30;23.30;87.10
9083;DHT22;4577;48.704;9.000;2023-07-29T12:36:58;23.40;88.40
9083;DHT22;4577;48.704;9.000;2023-07-29T12:39:33;23.60;88.70
9083;DHT22;4577;48.704;9.000;2023-07-29T12:42:00;23.70;87.40
9083;DHT22;4577;48.704;9.000;2023-07-29T12:44:32;23.60;87.40
9083;DHT22;4577;48.704;9.000;2023-07-29T12:46:59;23.70;86.50
9083;DHT22;4577;48.704;9.000;2023-07-29T12:51:53;23.70;85.90
9083;DHT22;4577;48.704;9.000;2023-07-29T12:54:19;23.60;86.20
9083;DHT22;4577;48.704;9.000;2023-07-29T12:56:45;23.60;86.20
9083;DHT22;4577;48.704;9.000;2023-07-29T12:59:10;23.60;86.50
9083;DHT22;4577;48.704;9.000;2023-07-29T13:04:02;23.90;86.30
9083;DHT22;4577;48.704;9.000;2023-07-29T13:06:28;23.90;84.80
9083;DHT22;4577;48.704;9.000;2023-07-29T13:08:54;23.80;84.90
9083;DHT22;4577;48.704;9.000;2023-07-29T13:11:19;24.10;84.70
9083;DHT22;4577;48.704;9.000;2023-07-29T13:13:45;24.00;84.90
9083;DHT22;4577;48.704;9.000;2023-07-29T13:16:11;23.90;83.10
9083;DHT22;4577;48.704;9.000;2023-07-29T13:18:38;23.90;83.70
9083;DHT22;4577;48.704;9.000;2023-07-29T13:21:03;23.90;84.30
9083;DHT22;4577;48.704;9.000;2023-07-29T13:23:29;23.90;84.10
9083;DHT22;4577;48.704;9.000;2023-07-29T13:25:56;23.90;83.30
9083;DHT22;4577;48.704;9.000;2023-07-29T13:28:22;23.80;83.40
9083;DHT22;4577;48.704;9.000;2023-07-29T13:30:48;23.90;83.10
9083;DHT22;4577;48.704;9.000;2023-07-29T13:33:13;23.90;83.80
9083;DHT22;4577;48.704;9.000;2023-07-29T13:35:39;23.90;84.30
9083;DHT22;4577;48.704;9.000;2023-07-29T13:38:05;23.80;84.40
9083;DHT22;4577;48.704;9.000;2023-07-29T13:40:31;23.80;84.80
9083;DHT22;4577;48.704;9.000;2023-07-29T13:42:57;23.90;84.30
9083;DHT22;4577;48.704;9.000;2023-07-29T13:45:23;23.90;85.00
9083;DHT22;4577;48.704;9.000;2023-07-29T13:47:49;23.90;83.30
9083;DHT22;4577;48.704;9.000;2023-07-29T13:50:16;23.80;83.30
9083;DHT22;4577;48.704;9.000;2023-07-29T13:52:41;23.80;83.80
9083;DHT22;4577;48.704;9.000;2023-07-29T13:55:07;23.80;84.70
9083;DHT22;4577;48.704;9.000;2023-07-29T13:57:33;23.80;83.60
9083;DHT22;4577;48.704;9.000;2023-07-29T13:59:59;23.80;82.60
9083;DHT22;4577;48.704;9.000;2023-07-29T14:02:25;23.90;82.20
9083;DHT22;4577;48.704;9.000;2023-07-29T14:04:56;23.90;82.50
9083;DHT22;4577;48.704;9.000;2023-07-29T14:07:22;23.90;81.90
9083;DHT22;4577;48.704;9.000;2023-07-29T14:09:47;23.90;82.30
9083;DHT22;4577;48.704;9.000;2023-07-29T14:12:13;23.90;82.40
9083;DHT22;4577;48.704;9.000;2023-07-29T14:14:41;23.90;82.60
9083;DHT22;4577;48.704;9.000;2023-07-29T14:17:10;23.80;82.40
9083;DHT22;4577;48.704;9.000;2023-07-29T14:19:37;23.80;81.50
9083;DHT22;4577;48.704;9.000;2023-07-29T14:22:02;23.70;81.30
9083;DHT22;4577;48.704;9.000;2023-07-29T14:24:28;23.70;81.50
9083;DHT22;4577;48.704;9.000;2023-07-29T14:26:54;23.80;82.30
9083;DHT22;4577;48.704;9.000;2023-07-29T14:29:19;23.80;80.90
9083;DHT22;4577;48.704;9.000;2023-07-29T14:31:45;23.90;80.70
9083;DHT22;4577;48.704;9.000;2023-07-29T14:34:14;23.80;79.90
9083;DHT22;4577;48.704;9.000;2023-07-29T14:36:39;23.80;81.00
9083;DHT22;4577;48.704;9.000;2023-07-29T14:39:05;23.80;80.50
9083;DHT22;4577;48.704;9.000;2023-07-29T14:43:57;23.80;79.40
9083;DHT22;4577;48.704;9.000;2023-07-29T14:46:23;23.80;79.70
9083;DHT22;4577;48.704;9.000;2023-07-29T14:48:48;23.80;80.00
9083;DHT22;4577;48.704;9.000;2023-07-29T14:51:15;23.70;78.20
9083;DHT22;4577;48.704;9.000;2023-07-29T14:53:40;23.80;79.00
9083;DHT22;4577;48.704;9.000;2023-07-29T14:58:32;23.90;78.00
9083;DHT22;4577;48.704;9.000;2023-07-29T15:00:58;23.90;79.20
9083;DHT22;4577;48.704;9.000;2023-07-29T15:03:24;24.00;79.80
9083;DHT22;4577;48.704;9.000;2023-07-29T15:05:50;23.90;78.40
9083;DHT22;4577;48.704;9.000;2023-07-29T15:08:16;23.80;79.10
9083;DHT22;4577;48.704;9.000;2023-07-29T15:10:48;23.90;79.60
9083;DHT22;4577;48.704;9.000;2023-07-29T15:13:14;24.00;79.40
9083;DHT22;4577;48.704;9.000;2023-07-29T15:15:41;23.90;79.10
9083;DHT22;4577;48.704;9.000;2023-07-29T15:18:07;23.80;78.60
9083;DHT22;4577;48.704;9.000;2023-07-29T15:20:33;23.80;79.50
9083;DHT22;4577;48.704;9.000;2023-07-29T15:25:25;23.90;77.90
9083;DHT22;4577;48.704;9.000;2023-07-29T15:27:51;24.00;78.30
9083;DHT22;4577;48.704;9.000;2023-07-29T15:32:43;23.80;78.20
9083;DHT22;4577;48.704;9.000;2023-07-29T15:35:09;23.90;78.70
9083;DHT22;4577;48.704;9.000;2023-07-29T15:37:34;24.20;79.30
9083;DHT22;4577;48.704;9.000;2023-07-29T15:40:00;24.30;79.00
9083;DHT22;4577;48.704;9.000;2023-07-29T15:42:25;24.00;77.90
9083;DHT22;4577;48.704;9.000;2023-07-29T15:44:51;23.90;78.40
9083;DHT22;4577;48.704;9.000;2023-07-29T15:47:17;24.10;79.20
9083;DHT22;4577;48.704;9.000;2023-07-29T15:49:44;24.20;78.60
9083;DHT22;4577;48.704;9.000;2023-07-29T15:52:10;24.20;78.20
9083;DHT22;4577;48.704;9.000;2023-07-29T15:54:39;24.30;78.10
9083;DHT22;4577;48.704;9.000;2023-07-29T15:57:06;24.30;78.10
9083;DHT22;4577;48.704;9.000;2023-07-29T15:59:32;24.40;78.00
9083;DHT22;4577;48.704;9.000;2023-07-29T16:01:58;24.20;77.70
9083;DHT22;4577;48.704;9.000;2023-07-29T16:04:24;24.20;78.70
9083;DHT22;4577;48.704;9.000;2023-07-29T16:06:50;24.20;78.50
9083;DHT22;4577;48.704;9.000;2023-07-29T16:09:17;24.40;78.40
9083;DHT22;4577;48.704;9.000;2023-07-29T16:11:48;24.60;78.80
9083;DHT22;4577;48.704;9.000;2023-07-29T16:14:14;24.70;78.30
9083;DHT22;4577;48.704;9.000;2023-07-29T16:16:41;24.80;76.70
9083;DHT22;4577;48.704;9.000;2023-07-29T16:19:07;25.00;77.50
9083;DHT22;4577;48.704;9.000;2023-07-29T16:21:35;24.60;76.10
9083;DHT22;4577;48.704;9.000;2023-07-29T16:24:02;24.50;77.60
9083;DHT22;4577;48.704;9.000;2023-07-29T16:26:28;24.60;77.40
9083;DHT22;4577;48.704;9.000;2023-07-29T16:28:54;24.60;76.80
9083;DHT22;4577;48.704;9.000;2023-07-29T16:31:21;24.80;76.20
9083;DHT22;4577;48.704;9.000;2023-07-29T16:33:47;24.70;76.70
9083;DHT22;4577;48.704;9.000;2023-07-29T16:36:13;24.50;77.00
9083;DHT22;4577;48.704;9.000;2023-07-29T16:38:39;24.40;77.10
9083;DHT22;4577;48.704;9.000;2023-07-29T16:41:06;24.40;77.80
9083;DHT22;4577;48.704;9.000;2023-07-29T16:43:32;24.40;77.60
9083;DHT22;4577;48.704;9.000;2023-07-29T16:45:58;24.30;77.70
9083;DHT22;4577;48.704;9.000;2023-07-29T16:48:25;24.30;77.90
9083;DHT22;4577;48.704;9.000;2023-07-29T16:50:51;24.50;77.70
9083;DHT22;4577;48.704;9.000;2023-07-29T16:53:17;24.60;77.80
9083;DHT22;4577;48.704;9.000;2023-07-29T16:55:44;24.40;77.50
9083;DHT22;4577;48.704;9.000;2023-07-29T16:58:11;24.10;78.30
9083;DHT22;4577;48.704;9.000;2023-07-29T17:00:37;24.00;79.10
9083;DHT22;4577;48.704;9.000;2023-07-29T17:03:03;24.00;79.80
9083;DHT22;4577;48.704;9.000;2023-07-29T17:05:29;23.90;80.10
9083;DHT22;4577;48.704;9.000;2023-07-29T17:07:55;24.00;80.60
9083;DHT22;4577;48.704;9.000;2023-07-29T17:10:22;24.00;80.90
9083;DHT22;4577;48.704;9.000;2023-07-29T17:12:48;23.90;82.00
9083;DHT22;4577;48.704;9.000;2023-07-29T17:15:14;23.70;87.20
9083;DHT22;4577;48.704;9.000;2023-07-29T17:17:40;22.90;93.80
9083;DHT22;4577;48.704;9.000;2023-07-29T17:20:06;22.00;99.90
9083;DHT22;4577;48.704;9.000;2023-07-29T17:22:33;21.70;99.90
9083;DHT22;4577;48.704;9.000;2023-07-29T17:25:01;21.60;99.90
9083;DHT22;4577;48.704;9.000;2023-07-29T17:27:29;21.50;99.90
9083;DHT22;4577;48.704;9.000;2023-07-29T17:29:55;21.60;99.90
9083;DHT22;4577;48.704;9.000;2023-07-29T17:32:20;21.80;99.90
9083;DHT22;4577;48.704;9.000;2023-07-29T17:34:46;21.50;99.90
9083;DHT22;4577;48.704;9.000;2023-07-29T17:37:12;21.70;99.90
9083;DHT22;4577;48.704;9.000;2023-07-29T17:39:38;21.80;99.90
9083;DHT22;4577;48.704;9.000;2023-07-29T17:42:07;21.90;99.90
9083;DHT22;4577;48.704;9.000;2023-07-29T17:44:34;21.90;99.90
9083;DHT22;4577;48.704;9.000;2023-07-29T17:47:00;22.10;99.90
9083;DHT22;4577;48.704;9.000;2023-07-29T17:49:26;22.10;99.90
9083;DHT22;4577;48.704;9.000;2023-07-29T17:51:52;22.00;99.90
9083;DHT22;4577;48.704;9.000;2023-07-29T17:54:17;22.00;99.90
9083;DHT22;4577;48.704;9.000;2023-07-29T17:56:43;22.00;99.90
9083;DHT22;4577;48.704;9.000;2023-07-29T17:59:09;21.90;99.90
9083;DHT22;4577;48.704;9.000;2023-07-29T18:01:34;21.80;99.90
9083;DHT22;4577;48.704;9.000;2023-07-29T18:04:00;22.00;99.90
9083;DHT22;4577;48.704;9.000;2023-07-29T18:06:26;22.10;99.90
9083;DHT22;4577;48.704;9.000;2023-07-29T18:08:52;22.30;99.90
9083;DHT22;4577;48.704;9.000;2023-07-29T18:11:17;22.10;99.90
9083;DHT22;4577;48.704;9.000;2023-07-29T18:13:44;22.30;99.90
9083;DHT22;4577;48.704;9.000;2023-07-29T18:16:09;22.40;99.90
9083;DHT22;4577;48.704;9.000;2023-07-29T18:18:36;22.50;99.90
9083;DHT22;4577;48.704;9.000;2023-07-29T18:21:01;22.40;99.90
9083;DHT22;4577;48.704;9.000;2023-07-29T18:23:27;22.30;99.90
9083;DHT22;4577;48.704;9.000;2023-07-29T18:25:54;22.20;99.90
9083;DHT22;4577;48.704;9.000;2023-07-29T18:28:22;22.10;99.90
9083;DHT22;4577;48.704;9.000;2023-07-29T18:30:48;22.00;99.90
9083;DHT22;4577;48.704;9.000;2023-07-29T18:33:17;21.70;99.90
9083;DHT22;4577;48.704;9.000;2023-07-29T18:35:43;21.70;99.90
9083;DHT22;4577;48.704;9.000;2023-07-29T18:38:08;21.80;99.90
9083;DHT22;4577;48.704;9.000;2023-07-29T18:40:34;21.80;99.90
9083;DHT22;4577;48.704;9.000;2023-07-29T18:43:00;21.70;99.90
9083;DHT22;4577;48.704;9.000;2023-07-29T18:45:26;21.60;99.90
9083;DHT22;4577;48.704;9.000;2023-07-29T18:47:54;21.70;99.90
9083;DHT22;4577;48.704;9.000;2023-07-29T18:50:20;21.60;99.90
9083;DHT22;4577;48.704;9.000;2023-07-29T18:52:46;21.60;99.90
9083;DHT22;4577;48.704;9.000;2023-07-29T18:55:11;21.70;99.90
9083;DHT22;4577;48.704;9.000;2023-07-29T18:57:37;21.80;99.90
9083;DHT22;4577;48.704;9.000;2023-07-29T19:00:03;21.80;99.90
9083;DHT22;4577;48.704;9.000;2023-07-29T19:02:30;21.80;99.90
9083;DHT22;4577;48.704;9.000;2023-07-29T19:04:56;21.80;99.90
9083;DHT22;4577;48.704;9.000;2023-07-29T19:07:21;21.80;99.90
9083;DHT22;4577;48.704;9.000;2023-07-29T19:09:47;21.80;99.90
9083;DHT22;4577;48.704;9.000;2023-07-29T19:12:14;21.80;99.90
9083;DHT22;4577;48.704;9.000;2023-07-29T19:14:40;21.80;99.90
9083;DHT22;4577;48.704;9.000;2023-07-29T19:17:06;21.70;99.90